Time,TemperatureF,DewpointF,PressureIn,WindDirection,WindDirectionDegrees,WindSpeedMPH,WindSpeedGustMPH,Humidity,HourlyPrecipIn,Conditions,Clouds,dailyrainin,SoftwareType,DateUTC
2013-02-21 00:00:00,16.5,9.6,30.13,NNW,337,0.0,0.0,74,0.00,,,0.00,WUHU21623XXSP,2013-02-21 06:00:00,
2013-02-21 00:05:00,16.3,9.4,30.13,NNW,337,0.0,0.0,74,0.00,,,0.00,WUHU21623XXSP,2013-02-21 06:05:00,
2013-02-21 00:10:00,16.2,9.3,30.13,North,0,0.0,0.0,74,0.00,,,0.00,WUHU21623XXSP,2013-02-21 06:10:00,
2013-02-21 00:15:00,16.2,9.3,30.13,NNW,337,0.0,0.0,74,0.00,,,0.00,WUHU21623XXSP,2013-02-21 06:15:00,
2013-02-21 00:20:00,16.0,9.1,30.14,NNW,337,0.0,0.0,74,0.00,,,0.00,WUHU21623XXSP,2013-02-21 06:20:00,
2013-02-21 00:26:00,15.8,9.1,30.14,NW,315,0.0,0.0,74,0.00,,,0.00,WUHU21623XXSP,2013-02-21 06:26:00,
2013-02-21 00:31:00,15.6,8.7,30.14,NW,315,0.0,0.0,74,0.00,,,0.00,WUHU21623XXSP,2013-02-21 06:31:00,
2013-02-21 00:36:00,15.6,8.7,30.14,NNW,337,0.0,0.0,74,0.00,,,0.00,WUHU21623XXSP,2013-02-21 06:36:00,
2013-02-21 00:41:00,15.4,8.6,30.14,NW,315,0.0,0.0,74,0.00,,,0.00,WUHU21623XXSP,2013-02-21 06:41:00,
2013-02-21 01:31:00,14.5,8.3,30.14,WNW,293,0.0,0.0,76,0.00,,,0.00,WUHU21623XXSP,2013-02-21 07:31:00,
2013-02-21 02:31:00,12.9,7.3,30.14,NNW,338,0.0,0.0,78,0.00,,,0.00,WUHU21623XXSP,2013-02-21 08:31:00,
2013-02-21 03:31:00,11.5,6.5,30.14,NNW,338,0.0,0.0,80,0.00,,,0.00,WUHU21623XXSP,2013-02-21 09:31:00,
2013-02-21 04:31:00,12.9,8.7,30.16,WNW,293,0.0,0.0,83,0.00,,,0.00,WUHU21623XXSP,2013-02-21 10:31:00,
2013-02-21 05:31:00,13.8,9.8,30.17,NW,315,0.0,0.0,84,0.00,,,0.00,WUHU21623XXSP,2013-02-21 11:31:00,
2013-02-21 06:36:00,14.2,10.5,30.11,NNE,23,0.0,0.0,85,0.00,,,0.00,WUHU21623XXSP,2013-02-21 12:36:00,
2013-02-21 06:41:00,14.2,10.5,30.10,NNW,337,0.0,0.0,85,0.00,,,0.00,WUHU21623XXSP,2013-02-21 12:41:00,
2013-02-21 06:46:00,14.2,10.5,30.13,WNW,292,0.0,0.0,85,0.00,,,0.00,WUHU21623XXSP,2013-02-21 12:46:00,
2013-02-21 06:51:00,14.4,10.7,30.14,NNW,337,0.0,0.0,85,0.00,,,0.00,WUHU21623XXSP,2013-02-21 12:51:00,
2013-02-21 06:56:00,14.4,10.7,30.16,ENE,67,0.0,0.0,85,0.00,,,0.00,WUHU21623XXSP,2013-02-21 12:56:00,
2013-02-21 07:01:00,14.5,10.8,30.18,ESE,112,0.0,0.0,85,0.00,,,0.00,WUHU21623XXSP,2013-02-21 13:01:00,
2013-02-21 07:06:00,14.7,11.0,30.17,ESE,112,0.0,0.0,85,0.00,,,0.00,WUHU21623XXSP,2013-02-21 13:06:00,
2013-02-21 07:11:00,14.7,11.0,30.15,North,0,0.0,0.0,85,0.00,,,0.00,WUHU21623XXSP,2013-02-21 13:11:00,
2013-02-21 07:16:00,15.1,11.3,30.15,NNW,337,0.0,0.0,85,0.00,,,0.00,WUHU21623XXSP,2013-02-21 13:16:00,
2013-02-21 07:21:00,15.1,11.3,30.16,NNW,337,0.0,0.0,85,0.00,,,0.00,WUHU21623XXSP,2013-02-21 13:21:00,
2013-02-21 07:26:00,15.4,11.5,30.16,NW,315,0.0,0.0,85,0.00,,,0.00,WUHU21623XXSP,2013-02-21 13:26:00,
2013-02-21 07:31:00,15.6,11.8,30.16,NW,315,0.0,0.0,85,0.00,,,0.00,WUHU21623XXSP,2013-02-21 13:31:00,
2013-02-21 07:36:00,15.6,11.8,30.16,NW,315,0.0,0.0,85,0.00,,,0.00,WUHU21623XXSP,2013-02-21 13:36:00,
2013-02-21 07:41:00,16.0,12.2,30.16,NW,315,0.0,0.0,85,0.00,,,0.00,WUHU21623XXSP,2013-02-21 13:41:00,
2013-02-21 07:46:00,16.3,12.5,30.18,WNW,292,0.0,0.0,85,0.00,,,0.00,WUHU21623XXSP,2013-02-21 13:46:00,
2013-02-21 07:51:00,16.5,12.7,30.18,West,270,0.0,0.0,85,0.00,,,0.00,WUHU21623XXSP,2013-02-21 13:51:00,
2013-02-21 07:56:00,16.7,12.9,30.17,West,270,0.0,0.0,85,0.00,,,0.00,WUHU21623XXSP,2013-02-21 13:56:00,
2013-02-21 08:01:00,17.2,13.4,30.16,West,270,0.0,0.0,85,0.00,,,0.00,WUHU21623XXSP,2013-02-21 14:01:00,
2013-02-21 08:06:00,17.2,13.1,30.16,NNW,337,0.0,0.0,84,0.00,,,0.00,WUHU21623XXSP,2013-02-21 14:06:00,
2013-02-21 08:09:00,17.2,13.1,30.15,NNW,337,0.0,0.0,84,0.00,,,0.00,WUHU21623XXSP,2013-02-21 14:09:00,
2013-02-21 08:11:00,17.2,13.1,30.15,NNW,337,0.0,0.0,84,0.00,,,0.00,WUHU21623XXSP,2013-02-21 14:11:00,
2013-02-21 08:31:00,18.0,14.0,30.15,WNW,293,0.0,0.0,84,0.00,,,0.00,WUHU21623XXSP,2013-02-21 14:31:00,
2013-02-21 09:31:00,19.6,15.3,30.14,WNW,293,0.0,0.0,83,0.00,,,0.00,WUHU21623XXSP,2013-02-21 15:31:00,
2013-02-21 10:31:00,21.7,17.6,30.14,WNW,293,0.0,0.0,84,0.00,,,0.00,WUHU21623XXSP,2013-02-21 16:31:00,
2013-02-21 11:31:00,22.8,18.1,30.13,WNW,293,0.0,0.0,82,0.00,,,0.00,WUHU21623XXSP,2013-02-21 17:31:00,
2013-02-21 12:31:00,24.4,19.7,30.08,West,270,0.0,0.0,82,0.00,,,0.00,WUHU21623XXSP,2013-02-21 18:31:00,
2013-02-21 13:31:00,25.2,20.5,30.06,NW,315,0.0,0.0,82,0.00,,,0.00,WUHU21623XXSP,2013-02-21 19:31:00,
2013-02-21 14:21:00,25.7,21.8,30.02,East,90,0.0,0.0,85,0.00,,,0.00,WUHU21623XXSP,2013-02-21 20:21:00,
2013-02-21 14:26:00,25.7,21.8,30.02,East,90,0.0,0.0,85,0.00,,,0.00,WUHU21623XXSP,2013-02-21 20:26:00,
2013-02-21 14:31:00,25.7,21.8,30.02,South,180,0.0,0.0,85,0.00,,,0.00,WUHU21623XXSP,2013-02-21 20:31:00,
2013-02-21 14:36:00,25.7,21.8,30.02,ENE,67,0.0,0.0,85,0.00,,,0.00,WUHU21623XXSP,2013-02-21 20:36:00,
2013-02-21 14:41:00,25.5,21.9,30.02,WNW,292,0.0,0.0,86,0.00,,,0.00,WUHU21623XXSP,2013-02-21 20:41:00,
2013-02-21 14:46:00,25.7,22.1,30.03,East,90,0.0,0.0,86,0.00,,,0.00,WUHU21623XXSP,2013-02-21 20:46:00,
2013-02-21 14:51:00,25.5,21.9,30.02,East,90,0.0,0.0,86,0.00,,,0.00,WUHU21623XXSP,2013-02-21 20:51:00,
2013-02-21 14:56:00,25.5,21.9,30.02,WNW,292,0.0,0.0,86,0.00,,,0.00,WUHU21623XXSP,2013-02-21 20:56:00,
2013-02-21 15:01:00,25.7,22.1,30.03,NE,45,0.0,0.0,86,0.00,,,0.00,WUHU21623XXSP,2013-02-21 21:01:00,
2013-02-21 15:06:00,25.7,22.1,30.03,NNW,337,0.0,0.0,86,0.00,,,0.00,WUHU21623XXSP,2013-02-21 21:06:00,
2013-02-21 15:11:00,25.7,22.1,30.04,WNW,292,0.0,0.0,86,0.00,,,0.00,WUHU21623XXSP,2013-02-21 21:11:00,
2013-02-21 15:16:00,25.7,22.1,30.03,NNE,22,0.0,0.0,86,0.00,,,0.00,WUHU21623XXSP,2013-02-21 21:16:00,
2013-02-21 15:21:00,25.7,22.1,30.04,ENE,67,0.0,0.0,86,0.00,,,0.00,WUHU21623XXSP,2013-02-21 21:21:00,
2013-02-21 15:26:00,25.7,22.1,30.04,NNW,337,0.0,0.0,86,0.00,,,0.00,WUHU21623XXSP,2013-02-21 21:26:00,
2013-02-21 15:31:00,25.7,22.1,30.04,NW,315,0.0,0.0,86,0.00,,,0.00,WUHU21623XXSP,2013-02-21 21:31:00,
2013-02-21 15:35:00,25.9,22.2,30.04,ENE,67,0.0,0.0,86,0.00,,,0.00,WUHU21623XXSP,2013-02-21 21:35:00,
2013-02-21 15:36:00,25.9,22.2,30.04,ENE,67,0.0,0.0,86,0.00,,,0.00,WUHU21623XXSP,2013-02-21 21:36:00,
2013-02-21 16:31:00,26.6,22.7,30.00,East,90,0.0,0.0,85,0.00,,,0.00,WUHU21623XXSP,2013-02-21 22:31:00,
2013-02-21 17:31:00,25.9,22.3,30.00,NE,45,0.0,0.0,86,0.00,,,0.00,WUHU21623XXSP,2013-02-21 23:31:00,
2013-02-21 18:31:00,25.5,21.6,29.98,ENE,68,0.0,0.0,85,0.00,,,0.00,WUHU21623XXSP,2013-02-22 00:31:00,
2013-02-21 19:13:00,25.9,22.0,29.98,East,90,0.0,0.0,85,0.00,,,0.00,WUHU21623XXSP,2013-02-22 01:13:00,
2013-02-21 19:18:00,26.1,22.1,29.98,East,90,0.0,0.0,85,0.00,,,0.00,WUHU21623XXSP,2013-02-22 01:18:00,
2013-02-21 19:23:00,26.1,22.1,29.97,East,90,0.0,0.0,85,0.00,,,0.00,WUHU21623XXSP,2013-02-22 01:23:00,
2013-02-21 19:28:00,26.2,22.3,29.96,SE,135,0.0,0.0,85,0.00,,,0.00,WUHU21623XXSP,2013-02-22 01:28:00,
2013-02-21 19:33:00,26.2,22.0,29.96,ENE,67,0.0,0.0,84,0.00,,,0.00,WUHU21623XXSP,2013-02-22 01:33:00,
2013-02-21 19:38:00,26.4,22.2,29.96,NE,45,0.0,0.0,84,0.00,,,0.00,WUHU21623XXSP,2013-02-22 01:38:00,
2013-02-21 19:43:00,26.4,22.2,29.95,ENE,67,0.0,0.0,84,0.00,,,0.00,WUHU21623XXSP,2013-02-22 01:43:00,
2013-02-21 19:48:00,26.4,22.2,29.94,SE,135,0.0,0.0,84,0.00,,,0.00,WUHU21623XXSP,2013-02-22 01:48:00,
2013-02-21 19:53:00,26.4,22.2,29.93,NE,45,0.0,0.0,84,0.00,,,0.00,WUHU21623XXSP,2013-02-22 01:53:00,
2013-02-21 19:58:00,26.4,22.2,29.94,ESE,112,0.0,0.0,84,0.00,,,0.00,WUHU21623XXSP,2013-02-22 01:58:00,
2013-02-21 20:03:00,26.4,22.2,29.93,SE,135,0.0,0.0,84,0.00,,,0.00,WUHU21623XXSP,2013-02-22 02:03:00,
2013-02-21 20:08:00,26.4,22.2,29.94,East,90,0.0,0.0,84,0.00,,,0.00,WUHU21623XXSP,2013-02-22 02:08:00,
2013-02-21 20:13:00,26.4,22.2,29.93,SE,135,0.0,0.0,84,0.00,,,0.00,WUHU21623XXSP,2013-02-22 02:13:00,
2013-02-21 20:31:00,26.2,21.7,29.92,East,90,0.0,0.0,83,0.00,,,0.00,WUHU21623XXSP,2013-02-22 02:31:00,
2013-02-21 21:31:00,25.5,20.8,29.88,East,90,0.0,0.0,82,0.00,,,0.00,WUHU21623XXSP,2013-02-22 03:31:00,
2013-02-21 21:56:00,25.5,21.1,29.88,NNE,22,0.0,0.0,83,0.00,,,0.00,WUHU21623XXSP,2013-02-22 03:56:00,
2013-02-21 22:01:00,25.5,21.1,29.89,ESE,112,0.0,0.0,83,0.00,,,0.00,WUHU21623XXSP,2013-02-22 04:01:00,
2013-02-21 22:06:00,25.5,21.1,29.89,ESE,112,0.0,0.0,83,0.00,,,0.00,WUHU21623XXSP,2013-02-22 04:06:00,
2013-02-21 22:11:00,25.5,21.1,29.89,ESE,112,0.0,0.0,83,0.00,,,0.00,WUHU21623XXSP,2013-02-22 04:11:00,
2013-02-21 22:16:00,25.5,21.1,29.90,ESE,112,0.0,0.0,83,0.00,,,0.00,WUHU21623XXSP,2013-02-22 04:16:00,
2013-02-21 22:21:00,25.5,21.1,29.89,East,90,0.0,0.0,83,0.00,,,0.00,WUHU21623XXSP,2013-02-22 04:21:00,
2013-02-21 22:26:00,25.5,21.1,29.87,East,90,0.0,0.0,83,0.00,,,0.00,WUHU21623XXSP,2013-02-22 04:26:00,
2013-02-21 22:31:00,25.5,21.1,29.87,ESE,112,0.0,0.0,83,0.00,,,0.00,WUHU21623XXSP,2013-02-22 04:31:00,
2013-02-21 22:36:00,25.5,21.1,29.87,ESE,112,0.0,0.0,83,0.00,,,0.00,WUHU21623XXSP,2013-02-22 04:36:00,
2013-02-21 22:41:00,25.3,21.1,29.88,ENE,67,0.0,0.0,83,0.00,,,0.00,WUHU21623XXSP,2013-02-22 04:41:00,
2013-02-21 22:46:00,25.3,21.3,29.87,SE,135,0.0,0.0,84,0.00,,,0.00,WUHU21623XXSP,2013-02-22 04:46:00,
2013-02-21 22:51:00,25.3,21.3,29.87,East,90,0.0,0.0,84,0.00,,,0.00,WUHU21623XXSP,2013-02-22 04:51:00,
2013-02-21 22:56:00,25.5,21.3,29.87,ENE,67,0.0,0.0,84,0.00,,,0.00,WUHU21623XXSP,2013-02-22 04:56:00,
2013-02-21 23:00:00,25.3,21.3,29.87,ENE,67,0.0,0.0,84,0.00,,,0.00,WUHU21623XXSP,2013-02-22 05:00:00,
2013-02-21 23:05:00,25.3,21.2,29.86,ESE,112,0.0,0.0,84,0.00,,,0.00,WUHU21623XXSP,2013-02-22 05:05:00,
2013-02-21 23:10:00,25.5,21.3,29.86,ENE,67,0.0,0.0,84,0.00,,,0.00,WUHU21623XXSP,2013-02-22 05:10:00,
2013-02-21 23:15:00,25.5,21.3,29.86,ESE,112,0.0,0.0,84,0.00,,,0.00,WUHU21623XXSP,2013-02-22 05:15:00,
2013-02-21 23:20:00,25.5,21.3,29.87,ESE,112,0.0,0.0,84,0.00,,,0.00,WUHU21623XXSP,2013-02-22 05:20:00,
2013-02-21 23:25:00,25.5,21.3,29.87,ESE,112,0.0,0.0,84,0.00,,,0.00,WUHU21623XXSP,2013-02-22 05:25:00,
2013-02-21 23:30:00,25.5,21.3,29.87,ESE,112,0.0,0.0,84,0.00,,,0.00,WUHU21623XXSP,2013-02-22 05:30:00,
2013-02-21 23:35:00,25.5,21.3,29.86,ESE,112,0.0,0.0,84,0.00,,,0.00,WUHU21623XXSP,2013-02-22 05:35:00,
2013-02-21 23:40:00,25.5,21.1,29.87,ESE,112,0.0,0.0,83,0.00,,,0.00,WUHU21623XXSP,2013-02-22 05:40:00,
2013-02-21 23:45:00,25.5,21.1,29.87,ESE,112,0.0,0.0,83,0.00,,,0.00,WUHU21623XXSP,2013-02-22 05:45:00,
2013-02-21 23:50:00,25.5,21.1,29.86,ENE,67,0.0,0.0,83,0.00,,,0.00,WUHU21623XXSP,2013-02-22 05:50:00,
2013-02-21 23:55:00,25.5,21.1,29.86,ESE,112,0.0,0.0,83,0.00,,,0.00,WUHU21623XXSP,2013-02-22 05:55:00,